Marcolandia, Brazil
Current Conditions -  °F | °C
As of 10:00 PM on Sunday 23 Nov 2014 (Local Time) from SBJU Reporting Station
Few Clouds Few Clouds  
Wind Chill: 82°   Ceiling: Unl
Heat Index: 85°   Visibility: 6mi
Dew Point: 66°   Wind: 3mph
Humidity: 58%   Direction: 270°W
Pressure: 30"   Gusts: NA
Location:  7.44°S, 40.66°W
Report Text: SBJU 240100Z 27003KT 9999 FEW020 28/19 Q1016
Loading
Personal Weather Stations






























Interactive Weather Map New forecast layout! Learn more

10-Day Weather Forecast

Advertisements
Track Severe Weather on mobile